Aviation Digital Data Service (ADDS)

Output produced by METARs form (0120 UTC 04 August 2015)
found at http://aviationweather.gov/adds/metars/
 
KCRG 032339Z 0400/0424 19007KT P6SM VCSH SCT007 BKN015 OVC025 
     TEMPO 0400/0401 VRB12G20KT 3SM TSRA BR BKN006 OVC015CB 
     FM040600 24007KT P6SM SCT025 BKN250 
     FM041600 25007KT P6SM VCTS BKN035CB BKN250